createdAt,value
2018-04-18T00:02:10.927Z,28.27
2018-04-18T00:05:13.385Z,26.23
2018-04-18T00:08:16.606Z,26.23
2018-04-18T00:11:19.052Z,26.90
2018-04-18T00:14:22.275Z,27.90
2018-04-18T00:17:24.723Z,27.90
2018-04-18T00:20:27.177Z,28.20
2018-04-18T00:23:29.638Z,27.70
2018-04-18T00:26:32.094Z,28.67
2018-04-18T00:29:34.553Z,26.73
2018-04-18T00:32:37.001Z,28.97
2018-04-18T00:35:40.221Z,28.33
2018-04-18T00:38:42.678Z,28.30
2018-04-18T00:41:45.126Z,27.87
2018-04-18T00:44:48.351Z,28.67
2018-04-18T00:47:51.566Z,29.50
2018-04-18T00:50:54.025Z,29.60
2018-04-18T00:53:56.483Z,28.00
2018-04-18T00:56:58.937Z,29.90
2018-04-18T01:00:01.394Z,29.83
2018-04-18T01:03:03.845Z,30.07
2018-04-18T01:06:06.303Z,29.57
2018-04-18T01:09:08.753Z,29.27
2018-04-18T01:12:11.205Z,29.50
2018-04-18T01:15:13.663Z,29.73
2018-04-18T01:18:16.117Z,29.47
2018-04-18T01:21:18.578Z,30.13
2018-04-18T01:24:21.797Z,30.60
2018-04-18T01:27:24.246Z,31.50
2018-04-18T01:30:27.465Z,30.90
2018-04-18T01:33:29.924Z,29.07
2018-04-18T01:36:32.370Z,32.43
2018-04-18T01:39:34.822Z,31.93
2018-04-18T01:42:37.273Z,31.87
2018-04-18T01:45:39.731Z,30.93
2018-04-18T01:48:42.951Z,31.00
2018-04-18T01:51:45.406Z,29.53
2018-04-18T01:54:47.865Z,32.37
2018-04-18T01:57:50.318Z,31.63
2018-04-18T02:00:52.774Z,31.07
2018-04-18T02:03:55.290Z,30.13
2018-04-18T02:06:57.744Z,31.07
2018-04-18T02:10:00.202Z,30.43
2018-04-18T02:13:02.655Z,30.63
2018-04-18T02:16:05.110Z,31.80
2018-04-18T02:19:08.338Z,30.57
2018-04-18T02:22:10.790Z,30.97
2018-04-18T02:25:14.013Z,29.77
2018-04-18T02:28:16.471Z,28.87
2018-04-18T02:31:18.922Z,28.53
2018-04-18T02:34:22.145Z,30.77
2018-04-18T02:37:24.593Z,29.73
2018-04-18T02:40:27.818Z,28.50
2018-04-18T02:43:30.266Z,29.13
2018-04-18T02:46:33.494Z,30.43
2018-04-18T02:49:35.959Z,29.03
2018-04-18T02:52:38.403Z,31.23
2018-04-18T02:55:40.867Z,29.47
2018-04-18T02:58:43.313Z,28.77
2018-04-18T03:01:45.773Z,28.67
2018-04-18T03:04:48.227Z,28.80
2018-04-18T03:07:50.682Z,29.30
2018-04-18T03:10:53.138Z,28.07
2018-04-18T03:13:55.586Z,29.70
2018-04-18T03:16:58.050Z,27.93
2018-04-18T03:20:00.509Z,29.90
2018-04-18T03:23:02.959Z,29.77
2018-04-18T03:26:05.417Z,30.93
2018-04-18T03:29:07.866Z,29.60
2018-04-18T03:32:10.331Z,30.87
2018-04-18T03:35:12.790Z,29.43
2018-04-18T03:38:15.999Z,28.13
2018-04-18T03:41:18.462Z,29.03
2018-04-18T03:44:21.690Z,26.57
2018-04-18T03:47:24.160Z,27.43
2018-04-18T03:50:26.614Z,29.40
2018-04-18T03:53:29.834Z,28.70
2018-04-18T03:56:32.493Z,27.83
2018-04-18T03:59:34.957Z,27.73
2018-04-18T04:02:38.172Z,28.17
2018-04-18T04:05:40.633Z,29.47
2018-04-18T04:08:43.849Z,26.87
2018-04-18T04:11:46.319Z,29.37
2018-04-18T04:14:48.769Z,30.37
2018-04-18T04:18:04.022Z,28.40
2018-04-18T04:21:18.393Z,27.70
2018-04-18T04:24:32.837Z,29.13
2018-04-18T04:27:36.114Z,29.30
2018-04-18T04:30:38.566Z,27.77
2018-04-18T04:33:41.017Z,29.50
2018-04-18T04:36:44.242Z,28.03
2018-04-18T04:39:46.694Z,27.37
2018-04-18T04:42:49.922Z,28.63
2018-04-18T04:45:52.378Z,28.27
2018-04-18T04:48:54.825Z,28.30
2018-04-18T04:51:57.277Z,27.53
2018-04-18T04:54:59.738Z,28.60
2018-04-18T04:58:02.199Z,27.60
2018-04-18T05:01:04.666Z,27.03
2018-04-18T05:04:07.117Z,25.63
2018-04-18T05:07:10.337Z,24.97
2018-04-18T05:10:12.791Z,23.03
2018-04-18T05:13:16.018Z,23.43
2018-04-18T05:16:18.474Z,23.80
2018-04-18T05:19:20.929Z,25.30
2018-04-18T05:22:23.385Z,23.40
2018-04-18T05:25:25.838Z,23.63
2018-04-18T05:28:28.307Z,24.23
2018-04-18T05:31:30.758Z,26.23
2018-04-18T05:34:33.205Z,25.70
2018-04-18T05:37:35.666Z,22.83
2018-04-18T05:40:38.123Z,22.73
2018-04-18T05:43:40.579Z,20.80
2018-04-18T05:46:43.034Z,17.67
2018-04-18T05:49:46.250Z,17.37
2018-04-18T05:52:48.712Z,17.93
2018-04-18T05:55:51.171Z,19.40
2018-04-18T05:58:54.386Z,18.40
2018-04-18T06:01:56.852Z,17.57
2018-04-18T06:05:00.061Z,17.53
2018-04-18T06:08:02.523Z,18.00
2018-04-18T06:11:04.978Z,18.27
2018-04-18T06:14:08.193Z,16.00
2018-04-18T06:17:11.413Z,16.33
2018-04-18T06:20:13.866Z,16.23
2018-04-18T06:23:16.329Z,17.90
2018-04-18T06:26:19.552Z,21.00
2018-04-18T06:29:22.098Z,31.37
2018-04-18T06:32:24.554Z,20.07
2018-04-18T06:35:27.009Z,30.47
2018-04-18T06:38:29.462Z,17.90
2018-04-18T06:41:31.920Z,18.30
2018-04-18T06:44:35.142Z,18.13
2018-04-18T06:47:37.602Z,17.50
2018-04-18T06:50:40.149Z,15.43
2018-04-18T06:53:53.258Z,17.63
2018-04-18T06:56:55.722Z,16.67
2018-04-18T06:59:58.229Z,16.73
2018-04-18T07:03:00.647Z,17.00
2018-04-18T07:06:03.102Z,15.90
2018-04-18T07:09:06.322Z,14.68
2018-04-18T07:12:08.792Z,15.30
2018-04-18T07:15:11.243Z,15.32
2018-04-18T07:18:14.470Z,16.85
2018-04-18T07:21:16.937Z,15.27
2018-04-18T07:24:19.390Z,14.68
2018-04-18T07:27:22.641Z,21.98
2018-04-18T07:30:25.098Z,17.62
2018-04-18T07:33:27.562Z,14.57
2018-04-18T07:36:30.018Z,14.63
2018-04-18T07:39:32.470Z,14.70
2018-04-18T07:42:34.926Z,12.55
2018-04-18T07:45:37.373Z,13.40
2018-04-18T07:48:39.833Z,12.43
2018-04-18T07:51:43.053Z,15.57
2018-04-18T07:54:45.510Z,12.95
2018-04-18T07:57:47.961Z,12.18
2018-04-18T08:00:51.186Z,12.90
2018-04-18T08:03:53.659Z,13.62
2018-04-18T08:06:56.868Z,11.55
2018-04-18T08:09:59.319Z,11.85
2018-04-18T08:13:02.548Z,11.27
2018-04-18T08:16:04.998Z,13.68
2018-04-18T08:19:07.454Z,13.88
2018-04-18T08:22:10.682Z,13.68
2018-04-18T08:25:13.131Z,12.35
2018-04-18T08:28:16.353Z,12.63
2018-04-18T08:31:18.803Z,12.90
2018-04-18T08:34:22.031Z,12.27
2018-04-18T08:37:24.491Z,11.93
2018-04-18T08:40:26.938Z,12.77
2018-04-18T08:43:29.394Z,11.27
2018-04-18T08:46:31.855Z,12.03
2018-04-18T08:49:34.313Z,12.00
2018-04-18T08:52:36.769Z,11.30
2018-04-18T08:55:39.216Z,12.57
2018-04-18T08:58:41.678Z,11.73
2018-04-18T09:01:44.142Z,12.00
2018-04-18T09:04:46.593Z,14.07
2018-04-18T09:07:49.061Z,12.40
2018-04-18T09:10:52.256Z,12.83
2018-04-18T09:13:55.254Z,13.37
2018-04-18T09:16:57.717Z,12.10
2018-04-18T09:20:00.164Z,12.37
2018-04-18T09:23:03.394Z,11.53
2018-04-18T09:26:05.834Z,11.23
2018-04-18T09:29:08.290Z,13.67
2018-04-18T09:32:10.750Z,15.20
2018-04-18T09:35:13.201Z,14.00
2018-04-18T09:38:15.662Z,14.60
2018-04-18T09:41:18.114Z,12.83
2018-04-18T09:44:21.340Z,13.43
2018-04-18T09:47:23.801Z,10.67
2018-04-18T09:50:27.014Z,10.40
2018-04-18T09:53:29.479Z,9.23
2018-04-18T09:56:32.694Z,9.47
2018-04-18T09:59:35.154Z,9.47
2018-04-18T10:02:37.610Z,9.53
2018-04-18T10:05:40.826Z,9.53
2018-04-18T10:08:43.278Z,9.07
2018-04-18T10:11:45.729Z,7.83
2018-04-18T10:14:48.181Z,9.13
2018-04-18T10:17:50.638Z,10.97
2018-04-18T10:20:53.099Z,11.53
2018-04-18T10:23:56.224Z,9.63
2018-04-18T10:26:58.680Z,11.10
2018-04-18T10:30:01.139Z,9.10
2018-04-18T10:33:04.365Z,9.43
2018-04-18T10:36:06.818Z,8.77
2018-04-18T10:39:09.269Z,9.47
2018-04-18T10:42:11.729Z,11.50
2018-04-18T10:45:14.174Z,8.40
2018-04-18T10:48:16.634Z,9.17
2018-04-18T10:51:19.080Z,8.33
2018-04-18T10:54:21.533Z,9.53
2018-04-18T10:57:23.978Z,8.83
2018-04-18T11:00:26.435Z,11.67
2018-04-18T11:03:28.890Z,10.03
2018-04-18T11:06:31.342Z,12.77
2018-04-18T11:09:33.798Z,13.50
2018-04-18T11:12:36.257Z,12.90
2018-04-18T11:15:44.390Z,13.40
2018-04-18T11:18:46.845Z,12.00
2018-04-18T11:21:49.293Z,12.93
2018-04-18T11:24:52.523Z,12.00
2018-04-18T11:27:55.009Z,11.50
2018-04-18T11:30:57.457Z,11.43
2018-04-18T11:33:59.922Z,11.43
2018-04-18T11:37:03.146Z,11.50
2018-04-18T11:40:05.610Z,11.30
2018-04-18T11:43:08.073Z,11.43
2018-04-18T11:46:11.290Z,12.70
2018-04-18T11:49:13.760Z,12.33
2018-04-18T11:52:16.200Z,10.53
2018-04-18T11:55:18.653Z,9.17
2018-04-18T11:58:21.106Z,9.10
2018-04-18T12:01:23.558Z,10.00
2018-04-18T12:04:26.013Z,10.20
2018-04-18T12:07:29.230Z,11.07
2018-04-18T12:10:31.699Z,11.03
2018-04-18T12:13:34.922Z,10.50
2018-04-18T12:16:37.381Z,9.67
2018-04-18T12:19:39.833Z,8.87
2018-04-18T12:22:43.061Z,8.53
2018-04-18T12:25:45.497Z,9.37
2018-04-18T12:28:48.722Z,9.47
2018-04-18T12:31:51.169Z,9.97
2018-04-18T12:34:54.381Z,9.93
2018-04-18T12:37:56.842Z,8.97
2018-04-18T12:41:00.053Z,9.00
2018-04-18T12:44:02.521Z,10.73
2018-04-18T12:47:05.731Z,8.90
2018-04-18T12:50:08.185Z,9.00
2018-04-18T12:53:11.406Z,8.40
2018-04-18T12:56:13.855Z,10.03
2018-04-18T12:59:16.310Z,10.63
2018-04-18T13:02:18.761Z,10.03
2018-04-18T13:05:21.217Z,9.80
2018-04-18T13:08:23.673Z,9.47
2018-04-18T13:11:26.890Z,8.83
2018-04-18T13:14:29.343Z,8.87
2018-04-18T13:17:32.553Z,9.23
2018-04-18T13:20:35.003Z,8.40
2018-04-18T13:23:38.227Z,10.50
2018-04-18T13:26:40.678Z,8.87
2018-04-18T13:29:43.898Z,8.87
2018-04-18T13:32:46.341Z,8.47
2018-04-18T13:35:48.797Z,12.80
2018-04-18T13:38:51.253Z,13.63
2018-04-18T13:41:53.702Z,8.47
2018-04-18T13:44:56.154Z,9.40
2018-04-18T13:47:59.377Z,8.47
2018-04-18T13:51:01.850Z,8.50
2018-04-18T13:54:04.297Z,8.40
2018-04-18T13:57:07.518Z,7.67
2018-04-18T14:00:09.966Z,7.37
2018-04-18T14:03:13.177Z,7.30
2018-04-18T14:06:15.626Z,21.10
2018-04-18T14:09:18.084Z,8.67
2018-04-18T14:12:20.529Z,7.77
2018-04-18T14:15:22.986Z,8.13
2018-04-18T14:18:25.437Z,6.97
2018-04-18T14:21:27.877Z,7.80
2018-04-18T14:24:30.326Z,7.00
2018-04-18T14:27:32.773Z,6.07
2018-04-18T14:30:54.118Z,5.77
2018-04-18T14:33:56.570Z,5.53
2018-04-18T14:36:59.786Z,6.30
2018-04-18T14:40:02.250Z,5.77
2018-04-18T14:43:05.469Z,5.67
2018-04-18T14:46:07.914Z,5.17
2018-04-18T14:49:11.132Z,5.30
2018-04-18T14:52:13.574Z,4.73
2018-04-18T14:55:16.021Z,5.53
2018-04-18T14:58:18.462Z,4.70
2018-04-18T15:01:20.918Z,4.57
2018-04-18T15:04:24.142Z,4.80
2018-04-18T15:07:26.586Z,4.57
2018-04-18T15:10:29.809Z,4.80
2018-04-18T15:13:32.261Z,9.20
2018-04-18T15:16:35.482Z,7.87
2018-04-18T15:19:37.925Z,4.40
2018-04-18T15:22:41.151Z,5.23
2018-04-18T15:25:43.600Z,5.20
2018-04-18T15:28:46.814Z,4.80
2018-04-18T15:31:49.525Z,4.73
2018-04-18T15:34:51.979Z,5.43
2018-04-18T15:37:54.426Z,5.63
2018-04-18T15:40:57.644Z,5.50
2018-04-18T15:44:13.223Z,5.50
2018-04-18T15:47:15.665Z,5.47
2018-04-18T15:50:18.123Z,4.77
2018-04-18T15:53:20.570Z,4.93
2018-04-18T15:56:23.022Z,5.30
2018-04-18T15:59:25.474Z,5.13
2018-04-18T16:02:27.918Z,4.67
2018-04-18T16:05:30.370Z,5.50
2018-04-18T16:08:32.815Z,4.67
2018-04-18T16:11:36.027Z,4.50
2018-04-18T16:14:38.478Z,4.03
2018-04-18T16:17:40.929Z,4.47
2018-04-18T16:20:43.377Z,5.73
2018-04-18T16:23:45.821Z,5.77
2018-04-18T16:26:49.041Z,6.70
2018-04-18T16:29:51.495Z,7.20
2018-04-18T16:32:53.937Z,7.77
2018-04-18T16:35:56.393Z,6.70
2018-04-18T16:38:58.847Z,6.27
2018-04-18T16:42:01.289Z,6.67
2018-04-18T16:45:04.502Z,7.23
2018-04-18T16:48:06.954Z,7.17
2018-04-18T16:51:09.401Z,6.90
2018-04-18T16:54:11.855Z,7.77
2018-04-18T16:57:14.341Z,7.63
2018-04-18T17:00:16.761Z,7.27
2018-04-18T17:03:19.207Z,7.80
2018-04-18T17:06:21.657Z,7.93
2018-04-18T17:09:24.114Z,8.10
2018-04-18T17:12:26.557Z,7.00
2018-04-18T17:15:29.005Z,7.97
2018-04-18T17:18:31.450Z,7.10
2018-04-18T17:21:33.940Z,6.97
2018-04-18T17:24:37.128Z,5.80
2018-04-18T17:27:39.565Z,6.43
2018-04-18T17:30:42.017Z,5.87
2018-04-18T17:33:44.474Z,21.67
2018-04-18T17:36:46.930Z,7.93
2018-04-18T17:39:49.386Z,7.70
2018-04-18T17:42:51.835Z,9.73
2018-04-18T17:45:54.289Z,9.90
2018-04-18T17:48:56.741Z,7.70
2018-04-18T17:51:59.189Z,8.57
2018-04-18T17:55:01.646Z,7.67
2018-04-18T17:58:04.093Z,8.43
2018-04-18T18:01:06.542Z,7.70
2018-04-18T18:04:08.989Z,8.27
2018-04-18T18:07:12.209Z,7.83
2018-04-18T18:10:14.670Z,7.27
2018-04-18T18:13:17.109Z,7.50
2018-04-18T18:16:20.321Z,7.00
2018-04-18T18:19:22.766Z,6.47
2018-04-18T18:22:25.217Z,7.13
2018-04-18T18:25:27.676Z,6.77
2018-04-18T18:28:30.114Z,7.03
2018-04-18T18:31:32.601Z,7.87
2018-04-18T18:34:35.027Z,6.87
2018-04-18T18:37:37.485Z,7.47
2018-04-18T18:40:39.933Z,7.63
2018-04-18T18:43:42.391Z,6.53
2018-04-18T18:46:44.842Z,5.90
2018-04-18T18:49:47.346Z,7.20
2018-04-18T18:52:49.749Z,6.50
2018-04-18T18:55:52.965Z,6.27
2018-04-18T18:58:55.413Z,7.80
2018-04-18T19:01:58.631Z,7.37
2018-04-18T19:05:01.090Z,7.97
2018-04-18T19:08:04.299Z,7.47
2018-04-18T19:11:06.753Z,9.67
2018-04-18T19:14:09.203Z,10.30
2018-04-18T19:17:11.662Z,11.33
2018-04-18T19:20:14.122Z,9.87
2018-04-18T19:23:16.578Z,11.17
2018-04-18T19:26:19.047Z,10.77
2018-04-18T19:29:22.259Z,10.43
2018-04-18T19:32:24.722Z,10.83
2018-04-18T19:35:27.947Z,10.83
2018-04-18T19:38:30.394Z,10.53
2018-04-18T19:41:33.626Z,10.00
2018-04-18T19:44:36.070Z,10.60
2018-04-18T19:47:38.568Z,10.77
2018-04-18T19:50:41.754Z,11.77
2018-04-18T19:53:44.203Z,11.43
2018-04-18T19:56:46.657Z,11.13
2018-04-18T19:59:49.105Z,11.00
2018-04-18T20:02:51.557Z,11.27
2018-04-18T20:05:54.017Z,10.80
2018-04-18T20:08:57.225Z,11.17
2018-04-18T20:11:59.685Z,10.63
2018-04-18T20:15:02.901Z,9.93
2018-04-18T20:18:05.357Z,11.23
2018-04-18T20:21:08.590Z,11.03
2018-04-18T20:24:11.042Z,10.80
2018-04-18T20:27:13.494Z,10.43
2018-04-18T20:30:16.706Z,10.43
2018-04-18T20:33:19.170Z,11.50
2018-04-18T20:36:22.396Z,11.10
2018-04-18T20:39:24.841Z,11.63
2018-04-18T20:42:27.297Z,10.40
2018-04-18T20:45:29.753Z,11.57
2018-04-18T20:48:32.222Z,11.47
2018-04-18T20:51:34.679Z,10.83
2018-04-18T20:54:37.129Z,11.87
2018-04-18T20:57:40.358Z,12.57
2018-04-18T21:00:42.811Z,12.00
2018-04-18T21:03:45.265Z,13.23
2018-04-18T21:06:48.490Z,12.97
2018-04-18T21:09:50.932Z,13.37
2018-04-18T21:12:54.162Z,12.93
2018-04-18T21:15:56.618Z,13.13
2018-04-18T21:18:59.846Z,14.97
2018-04-18T21:22:02.296Z,14.10
2018-04-18T21:25:04.754Z,14.50
2018-04-18T21:28:07.207Z,14.83
2018-04-18T21:31:09.663Z,14.03
2018-04-18T21:34:12.118Z,15.43
2018-04-18T21:37:14.573Z,15.10
2018-04-18T21:40:17.786Z,15.47
2018-04-18T21:43:20.274Z,14.90
2018-04-18T21:46:22.722Z,15.47
2018-04-18T21:49:25.180Z,16.07
2018-04-18T21:52:27.631Z,15.17
2018-04-18T21:55:30.077Z,15.77
2018-04-18T21:58:32.543Z,15.40
2018-04-18T22:01:34.991Z,16.80
2018-04-18T22:04:37.449Z,18.37
2018-04-18T22:07:40.672Z,16.93
2018-04-18T22:10:43.886Z,16.70
2018-04-18T22:13:46.345Z,17.77
2018-04-18T22:16:49.582Z,16.50
2018-04-18T22:19:52.021Z,17.80
2018-04-18T22:22:54.481Z,17.87
2018-04-18T22:25:57.705Z,17.27
2018-04-18T22:29:00.157Z,17.17
2018-04-18T22:32:03.377Z,17.97
2018-04-18T22:35:05.843Z,16.77
2018-04-18T22:38:08.298Z,17.43
2018-04-18T22:41:10.749Z,17.97
2018-04-18T22:44:13.201Z,18.50
2018-04-18T22:47:15.665Z,18.33
2018-04-18T22:50:18.131Z,17.73
2018-04-18T22:53:20.582Z,17.10
2018-04-18T22:56:23.798Z,18.03
2018-04-18T22:59:26.254Z,18.60
2018-04-18T23:02:29.469Z,19.10
2018-04-18T23:05:31.922Z,17.63
2018-04-18T23:08:35.146Z,18.37
2018-04-18T23:11:37.602Z,18.17
2018-04-18T23:14:40.059Z,17.20
2018-04-18T23:17:42.506Z,18.60
2018-04-18T23:20:44.962Z,18.83
2018-04-18T23:23:47.423Z,18.07
2018-04-18T23:26:49.878Z,19.07
2018-04-18T23:29:52.346Z,19.00
2018-04-18T23:32:54.805Z,18.83
2018-04-18T23:35:57.258Z,19.70
2018-04-18T23:38:59.715Z,20.47
2018-04-18T23:42:02.161Z,19.37
2018-04-18T23:45:05.385Z,19.53
2018-04-18T23:48:07.836Z,19.97
2018-04-18T23:51:11.062Z,21.70
2018-04-18T23:54:13.524Z,21.47
2018-04-18T23:57:15.987Z,21.17
